Time;durP1;ratioP1;P1;durP2;ratioP2;P2;SDS_P1;SDS_P2;PMS_P1;PMS_P2;Temp;Humidity;BMP_temperature;BMP_pressure;BME280_temperature;BME280_humidity;BME280_pressure;Samples;Min_cycle;Max_cycle;Signal;HPM_P1;HPM_P2
2022/01/04 00:02:21;;;;;;;5.25;2.20;;;;;;;;;;5072164;28;20423;-55
2022/01/04 00:04:47;;;;;;;5.90;1.42;;;;;;;;;;5072445;28;20021;-54
2022/01/04 00:07:12;;;;;;;6.95;1.58;;;;;;;;;;5072124;28;20040;-56
2022/01/04 00:09:41;;;;;;;7.22;1.88;;;;;;;;;;5071934;28;20484;-56
2022/01/04 00:14:51;;;;;;;4.00;1.27;;;;;;;;;;5069824;28;20178;-56
2022/01/04 00:17:16;;;;;;;6.90;1.77;;;;;;;;;;5072477;28;20088;-56
2022/01/04 00:19:41;;;;;;;7.18;1.33;;;;;;;;;;5071772;28;20037;-56
2022/01/04 00:22:08;;;;;;;7.47;2.13;;;;;;;;;;5072156;28;20509;-56
2022/01/04 00:24:33;;;;;;;7.38;1.77;;;;;;;;;;5072129;28;20028;-56
2022/01/04 00:26:58;;;;;;;5.53;2.08;;;;;;;;;;5072084;28;20492;-56
2022/01/04 00:29:23;;;;;;;5.65;1.55;;;;;;;;;;5071619;28;20186;-56
2022/01/04 00:31:49;;;;;;;6.25;1.60;;;;;;;;;;5072650;28;20044;-56
2022/01/04 00:34:14;;;;;;;6.78;1.75;;;;;;;;;;5071950;28;20120;-55
2022/01/04 00:36:39;;;;;;;6.68;2.03;;;;;;;;;;5071977;28;20094;-55
2022/01/04 00:39:04;;;;;;;5.78;1.88;;;;;;;;;;5072136;28;20401;-56
2022/01/04 00:41:29;;;;;;;9.75;2.65;;;;;;;;;;5072064;28;20394;-56
2022/01/04 00:43:55;;;;;;;6.75;1.38;;;;;;;;;;5072297;28;20099;-55
2022/01/04 00:46:20;;;;;;;6.45;2.30;;;;;;;;;;5072066;28;20134;-56
2022/01/04 00:51:29;;;;;;;7.68;2.50;;;;;;;;;;5068270;28;20031;-57
2022/01/04 00:53:54;;;;;;;6.63;1.88;;;;;;;;;;5073315;28;20492;-56
2022/01/04 00:56:19;;;;;;;6.55;1.45;;;;;;;;;;5072212;28;20056;-56
2022/01/04 00:58:45;;;;;;;5.80;1.73;;;;;;;;;;5073018;28;20476;-56
2022/01/04 01:01:10;;;;;;;6.93;1.92;;;;;;;;;;5072723;28;20109;-56
2022/01/04 01:03:35;;;;;;;7.15;2.60;;;;;;;;;;5072104;28;20040;-55
2022/01/04 01:06:00;;;;;;;7.40;2.13;;;;;;;;;;5072278;28;20033;-55
2022/01/04 01:08:25;;;;;;;7.60;1.50;;;;;;;;;;5063852;28;20086;-54
2022/01/04 01:10:51;;;;;;;6.85;1.75;;;;;;;;;;5053098;28;20040;-57
2022/01/04 01:13:17;;;;;;;4.60;1.58;;;;;;;;;;5052340;28;20416;-56
2022/01/04 01:15:45;;;;;;;5.70;2.38;;;;;;;;;;5051928;28;20501;-56
2022/01/04 01:18:11;;;;;;;7.57;2.10;;;;;;;;;;5052789;28;20102;-56
2022/01/04 01:20:36;;;;;;;5.35;1.63;;;;;;;;;;5052656;28;20037;-56
2022/01/04 01:23:02;;;;;;;4.28;1.58;;;;;;;;;;5052618;28;20055;-55
2022/01/04 01:25:27;;;;;;;7.80;1.92;;;;;;;;;;5051952;28;20041;-56
2022/01/04 01:27:52;;;;;;;7.57;1.70;;;;;;;;;;5051905;28;20052;-56
2022/01/04 01:30:18;;;;;;;6.53;1.85;;;;;;;;;;5068318;28;20033;-56
2022/01/04 01:32:44;;;;;;;8.20;2.13;;;;;;;;;;5076104;28;20031;-55
2022/01/04 01:35:09;;;;;;;5.88;1.80;;;;;;;;;;5074850;28;20043;-56
2022/01/04 01:37:35;;;;;;;6.47;2.35;;;;;;;;;;5076360;28;20028;-56
2022/01/04 01:40:00;;;;;;;9.68;2.38;;;;;;;;;;5076155;28;20033;-55
2022/01/04 01:42:25;;;;;;;7.53;1.80;;;;;;;;;;5076155;28;20025;-56
2022/01/04 01:44:51;;;;;;;4.13;2.10;;;;;;;;;;5075557;28;20033;-56
2022/01/04 01:47:16;;;;;;;6.65;2.15;;;;;;;;;;5075988;28;20020;-56
2022/01/04 01:49:41;;;;;;;5.60;2.00;;;;;;;;;;5077899;28;20024;-56
2022/01/04 01:52:07;;;;;;;7.35;2.92;;;;;;;;;;5075717;28;20029;-56
2022/01/04 01:54:32;;;;;;;10.25;2.30;;;;;;;;;;5075311;28;20119;-56
2022/01/04 01:56:57;;;;;;;6.70;2.33;;;;;;;;;;5075421;28;20029;-55
2022/01/04 01:59:22;;;;;;;7.35;2.17;;;;;;;;;;5075793;28;20036;-55
2022/01/04 02:01:48;;;;;;;3.17;1.65;;;;;;;;;;5075814;28;20029;-56
2022/01/04 02:04:13;;;;;;;5.55;1.77;;;;;;;;;;5075332;28;20036;-56
2022/01/04 02:06:38;;;;;;;6.68;2.42;;;;;;;;;;5075293;28;20032;-56
2022/01/04 02:09:04;;;;;;;5.30;1.98;;;;;;;;;;5075308;28;20028;-56
2022/01/04 02:11:30;;;;;;;5.47;2.13;;;;;;;;;;5075479;28;20108;-55
2022/01/04 02:13:58;;;;;;;6.53;2.35;;;;;;;;;;5075607;28;20123;-56
2022/01/04 02:16:29;;;;;;;6.95;2.10;;;;;;;;;;5074937;28;20040;-55
2022/01/04 02:19:01;;;;;;;5.78;2.00;;;;;;;;;;5075476;28;20025;-56
2022/01/04 02:21:26;;;;;;;4.18;1.92;;;;;;;;;;5075423;28;20029;-56
2022/01/04 02:23:51;;;;;;;7.18;2.10;;;;;;;;;;5075123;28;20499;-56
2022/01/04 02:26:16;;;;;;;5.50;2.28;;;;;;;;;;5074836;28;20024;-56
2022/01/04 02:28:42;;;;;;;5.68;2.25;;;;;;;;;;5074201;28;20104;-56
2022/01/04 02:31:08;;;;;;;5.85;2.70;;;;;;;;;;5073865;28;20040;-55
2022/01/04 02:33:33;;;;;;;5.60;1.70;;;;;;;;;;5075142;28;20044;-56
2022/01/04 02:35:58;;;;;;;9.50;2.87;;;;;;;;;;5074580;28;20028;-56
2022/01/04 02:38:23;;;;;;;6.85;2.97;;;;;;;;;;5075114;28;20433;-56
2022/01/04 02:40:48;;;;;;;4.82;1.95;;;;;;;;;;5075428;28;20021;-57
2022/01/04 02:43:14;;;;;;;6.65;2.20;;;;;;;;;;5073927;28;20029;-56
2022/01/04 02:45:39;;;;;;;7.07;2.22;;;;;;;;;;5076021;28;20032;-56
2022/01/04 02:48:04;;;;;;;8.05;3.05;;;;;;;;;;5074911;28;20017;-56
2022/01/04 02:50:29;;;;;;;4.03;1.77;;;;;;;;;;5074758;28;20368;-56
2022/01/04 02:52:55;;;;;;;5.95;2.00;;;;;;;;;;5074854;28;20032;-56
2022/01/04 02:55:20;;;;;;;7.90;2.30;;;;;;;;;;5074399;28;20448;-56
2022/01/04 02:57:46;;;;;;;6.75;2.00;;;;;;;;;;5074376;28;20070;-56
2022/01/04 03:00:13;;;;;;;4.63;1.85;;;;;;;;;;5074501;28;20025;-55
2022/01/04 03:02:38;;;;;;;8.18;2.05;;;;;;;;;;5074734;28;20476;-56
2022/01/04 03:05:04;;;;;;;6.85;1.80;;;;;;;;;;5074774;28;20021;-54
2022/01/04 03:07:29;;;;;;;6.57;2.25;;;;;;;;;;5073864;28;20037;-55
2022/01/04 03:09:54;;;;;;;7.30;2.08;;;;;;;;;;5074545;28;20107;-55
2022/01/04 03:12:20;;;;;;;4.35;1.90;;;;;;;;;;5074464;28;20028;-56
2022/01/04 03:14:45;;;;;;;5.85;2.08;;;;;;;;;;5072592;28;20590;-55
2022/01/04 03:17:10;;;;;;;8.70;2.08;;;;;;;;;;5074205;28;20026;-56
2022/01/04 03:19:35;;;;;;;6.93;2.55;;;;;;;;;;5074278;28;20040;-55
2022/01/04 03:22:02;;;;;;;5.75;2.15;;;;;;;;;;5074136;28;20489;-56
2022/01/04 03:24:27;;;;;;;6.25;2.53;;;;;;;;;;5073886;28;20032;-56
2022/01/04 03:26:52;;;;;;;8.02;3.67;;;;;;;;;;5071928;28;20412;-56
2022/01/04 03:29:18;;;;;;;8.38;2.53;;;;;;;;;;5073908;28;20427;-57
2022/01/04 03:31:43;;;;;;;9.23;2.78;;;;;;;;;;5074552;28;20047;-56
2022/01/04 03:34:09;;;;;;;5.25;2.50;;;;;;;;;;5073591;28;20466;-55
2022/01/04 03:36:34;;;;;;;8.27;2.20;;;;;;;;;;5073539;28;20384;-55
2022/01/04 03:39:04;;;;;;;7.10;2.70;;;;;;;;;;5073827;28;20089;-56
2022/01/04 03:41:30;;;;;;;7.93;2.28;;;;;;;;;;5075394;28;20350;-56
2022/01/04 03:43:55;;;;;;;7.88;2.95;;;;;;;;;;5074458;28;20044;-56
2022/01/04 03:46:20;;;;;;;12.98;2.53;;;;;;;;;;5073287;28;20039;-55
2022/01/04 03:48:46;;;;;;;4.10;1.85;;;;;;;;;;5071972;28;20031;-55
2022/01/04 03:51:11;;;;;;;4.03;1.98;;;;;;;;;;5073527;28;20095;-55
2022/01/04 03:53:37;;;;;;;5.22;2.08;;;;;;;;;;5073116;28;20055;-56
2022/01/04 03:56:02;;;;;;;5.95;1.98;;;;;;;;;;5073782;28;20039;-55
2022/01/04 03:58:28;;;;;;;7.25;2.72;;;;;;;;;;5073268;28;20115;-56
2022/01/04 04:00:53;;;;;;;5.55;1.95;;;;;;;;;;5073188;28;20040;-57
2022/01/04 04:03:18;;;;;;;5.85;2.10;;;;;;;;;;5073308;28;20362;-55
2022/01/04 04:05:43;;;;;;;5.05;1.98;;;;;;;;;;5072772;28;20105;-56
2022/01/04 04:08:09;;;;;;;4.25;2.03;;;;;;;;;;5073381;28;20020;-56
2022/01/04 04:10:34;;;;;;;5.03;2.08;;;;;;;;;;5073302;28;20040;-55
2022/01/04 04:13:00;;;;;;;4.63;1.92;;;;;;;;;;5073265;28;20119;-57
2022/01/04 04:15:25;;;;;;;7.32;2.78;;;;;;;;;;5072685;28;20044;-57
2022/01/04 04:17:50;;;;;;;5.22;2.00;;;;;;;;;;5072689;28;20536;-56
2022/01/04 04:20:16;;;;;;;5.57;2.08;;;;;;;;;;5073937;28;20013;-56
2022/01/04 04:22:41;;;;;;;5.72;3.05;;;;;;;;;;5072942;28;20064;-57
2022/01/04 04:25:07;;;;;;;6.63;2.83;;;;;;;;;;5072722;28;20128;-56
2022/01/04 04:27:32;;;;;;;7.80;2.65;;;;;;;;;;5072552;28;20051;-57
2022/01/04 04:29:58;;;;;;;4.07;2.10;;;;;;;;;;5072699;28;20032;-57
2022/01/04 04:32:23;;;;;;;4.72;2.10;;;;;;;;;;5072745;28;20036;-56
2022/01/04 04:34:48;;;;;;;6.20;2.38;;;;;;;;;;5073197;28;20024;-56
2022/01/04 04:37:14;;;;;;;6.95;2.42;;;;;;;;;;5071134;28;20041;-55
2022/01/04 04:39:39;;;;;;;4.78;2.10;;;;;;;;;;5072435;28;20090;-56
2022/01/04 04:42:04;;;;;;;4.47;2.20;;;;;;;;;;5072950;28;20024;-56
2022/01/04 04:44:30;;;;;;;6.82;2.33;;;;;;;;;;5073169;28;20385;-56
2022/01/04 04:46:55;;;;;;;5.32;2.25;;;;;;;;;;5072602;28;20024;-56
2022/01/04 04:49:20;;;;;;;4.60;1.63;;;;;;;;;;5073113;28;20039;-56
2022/01/04 04:51:45;;;;;;;6.13;2.13;;;;;;;;;;5073538;28;20043;-56
2022/01/04 04:54:10;;;;;;;9.85;2.88;;;;;;;;;;5071044;28;20039;-57
2022/01/04 04:56:38;;;;;;;3.88;2.25;;;;;;;;;;5072211;28;20028;-56
2022/01/04 04:59:04;;;;;;;4.15;1.75;;;;;;;;;;5073123;28;20484;-56
2022/01/04 05:01:29;;;;;;;6.03;2.35;;;;;;;;;;5064975;28;20039;-56
2022/01/04 05:03:54;;;;;;;4.63;2.30;;;;;;;;;;5052088;28;20049;-56
2022/01/04 05:06:20;;;;;;;4.35;2.17;;;;;;;;;;5054623;28;20041;-56
2022/01/04 05:08:45;;;;;;;5.50;2.78;;;;;;;;;;5055829;28;20100;-56
2022/01/04 05:11:10;;;;;;;3.72;2.05;;;;;;;;;;5056926;28;20498;-56
2022/01/04 05:13:35;;;;;;;5.15;2.30;;;;;;;;;;5056235;28;20033;-56
2022/01/04 05:16:02;;;;;;;3.03;1.92;;;;;;;;;;5064022;28;20082;-55
2022/01/04 05:18:27;;;;;;;6.47;2.17;;;;;;;;;;5076438;28;20112;-55
2022/01/04 05:20:52;;;;;;;5.32;2.50;;;;;;;;;;5076435;28;20048;-56
2022/01/04 05:23:17;;;;;;;8.27;2.50;;;;;;;;;;5076350;28;20032;-56
2022/01/04 05:25:42;;;;;;;4.65;2.20;;;;;;;;;;5076303;28;20040;-57
2022/01/04 05:28:08;;;;;;;2.90;2.20;;;;;;;;;;5075365;28;20381;-55
2022/01/04 05:30:33;;;;;;;5.38;2.65;;;;;;;;;;5075837;28;20397;-56
2022/01/04 05:32:58;;;;;;;3.80;2.08;;;;;;;;;;5076097;28;20048;-56
2022/01/04 05:35:23;;;;;;;6.57;2.60;;;;;;;;;;5074468;28;20033;-55
2022/01/04 05:37:49;;;;;;;5.32;2.47;;;;;;;;;;5076202;28;20017;-56
2022/01/04 05:40:14;;;;;;;5.70;2.55;;;;;;;;;;5075976;28;20119;-56
2022/01/04 05:42:39;;;;;;;7.30;2.65;;;;;;;;;;5076288;28;20334;-56
2022/01/04 05:45:04;;;;;;;7.15;2.55;;;;;;;;;;5075315;28;20082;-56
2022/01/04 05:47:30;;;;;;;3.65;2.00;;;;;;;;;;5075246;28;20487;-56
2022/01/04 05:49:55;;;;;;;6.30;2.17;;;;;;;;;;5075827;28;20078;-56
2022/01/04 05:52:20;;;;;;;7.32;2.03;;;;;;;;;;5075329;28;20100;-57
2022/01/04 05:54:48;;;;;;;4.35;1.67;;;;;;;;;;5075292;28;20028;-56
2022/01/04 05:57:14;;;;;;;6.00;1.50;;;;;;;;;;5075452;28;20132;-56
2022/01/04 05:59:39;;;;;;;4.35;1.55;;;;;;;;;;5075056;28;20511;-56
2022/01/04 06:02:04;;;;;;;2.75;1.80;;;;;;;;;;5075671;28;20082;-57
2022/01/04 06:04:29;;;;;;;4.32;1.33;;;;;;;;;;5075271;28;20115;-56
2022/01/04 06:06:55;;;;;;;3.03;1.20;;;;;;;;;;5075309;28;20040;-56
2022/01/04 06:09:26;;;;;;;3.65;1.55;;;;;;;;;;5059403;28;20048;-56
2022/01/04 06:17:01;;;;;;;2.65;1.10;;;;;;;;;;5056935;28;20101;-57
2022/01/04 06:19:26;;;;;;;5.07;1.48;;;;;;;;;;5056152;28;20083;-57
2022/01/04 06:21:52;;;;;;;3.88;0.98;;;;;;;;;;5055781;28;20033;-57
2022/01/04 06:24:17;;;;;;;0.98;0.50;;;;;;;;;;5056035;28;20120;-57
2022/01/04 06:26:43;;;;;;;2.55;1.20;;;;;;;;;;5070232;28;20119;-56
2022/01/04 06:29:09;;;;;;;2.30;0.80;;;;;;;;;;5076122;28;20043;-57
2022/01/04 06:31:34;;;;;;;3.10;0.88;;;;;;;;;;5077414;28;20393;-56
2022/01/04 06:34:00;;;;;;;2.95;1.20;;;;;;;;;;5075755;28;20052;-57
2022/01/04 06:36:25;;;;;;;1.92;1.70;;;;;;;;;;5073908;28;20094;-57
2022/01/04 06:38:50;;;;;;;1.83;0.90;;;;;;;;;;5074702;28;20043;-57
2022/01/04 06:41:16;;;;;;;3.67;1.08;;;;;;;;;;5075951;28;20036;-57
2022/01/04 06:43:41;;;;;;;3.70;1.33;;;;;;;;;;5073320;28;20036;-57
2022/01/04 06:46:08;;;;;;;5.03;1.00;;;;;;;;;;5074429;28;20131;-57
2022/01/04 06:48:33;;;;;;;4.15;1.20;;;;;;;;;;5074544;28;20025;-57
2022/01/04 06:50:58;;;;;;;6.60;1.17;;;;;;;;;;5074829;28;20031;-59
2022/01/04 06:53:24;;;;;;;3.92;0.98;;;;;;;;;;5074684;28;20029;-59
2022/01/04 06:55:50;;;;;;;3.33;1.10;;;;;;;;;;5075394;28;20087;-60
2022/01/04 06:58:18;;;;;;;2.42;0.85;;;;;;;;;;5074578;28;21042;-59
2022/01/04 07:00:43;;;;;;;1.95;0.75;;;;;;;;;;5074064;28;20048;-59
2022/01/04 07:03:09;;;;;;;1.80;0.70;;;;;;;;;;5074645;28;20377;-58
2022/01/04 07:05:35;;;;;;;3.60;1.05;;;;;;;;;;5072909;28;20052;-58
2022/01/04 07:08:00;;;;;;;4.93;0.85;;;;;;;;;;5074915;28;20025;-59
2022/01/04 07:10:26;;;;;;;4.72;1.52;;;;;;;;;;5074259;28;20119;-58
2022/01/04 07:12:51;;;;;;;6.30;1.27;;;;;;;;;;5074445;28;20033;-60
2022/01/04 07:15:16;;;;;;;3.47;1.27;;;;;;;;;;5074187;28;20040;-59
2022/01/04 07:17:41;;;;;;;3.23;1.07;;;;;;;;;;5074028;28;20029;-60
2022/01/04 07:20:07;;;;;;;2.92;1.08;;;;;;;;;;5074391;28;20425;-59
2022/01/04 07:22:32;;;;;;;3.85;1.10;;;;;;;;;;5073150;28;20041;-58
2022/01/04 07:24:58;;;;;;;1.70;0.88;;;;;;;;;;5074013;28;20500;-59
2022/01/04 07:27:23;;;;;;;4.63;0.90;;;;;;;;;;5075305;28;20064;-59
2022/01/04 07:29:48;;;;;;;1.38;0.68;;;;;;;;;;5073190;28;20457;-58
2022/01/04 07:32:13;;;;;;;3.05;0.93;;;;;;;;;;5074342;28;20063;-59
2022/01/04 07:34:39;;;;;;;4.47;1.35;;;;;;;;;;5074047;28;20423;-59
2022/01/04 07:37:04;;;;;;;3.97;1.20;;;;;;;;;;5074050;28;20061;-59
2022/01/04 07:39:29;;;;;;;1.65;0.82;;;;;;;;;;5073727;28;20779;-59
2022/01/04 07:41:57;;;;;;;2.13;0.87;;;;;;;;;;5074070;28;20017;-58
2022/01/04 07:44:22;;;;;;;2.97;0.98;;;;;;;;;;5074176;28;20957;-58
2022/01/04 07:46:47;;;;;;;2.25;0.90;;;;;;;;;;5073762;28;20097;-59
2022/01/04 07:49:12;;;;;;;2.38;1.20;;;;;;;;;;5073273;28;20043;-58
2022/01/04 07:51:38;;;;;;;2.43;1.10;;;;;;;;;;5073434;28;20024;-59
2022/01/04 07:54:03;;;;;;;2.67;0.90;;;;;;;;;;5073409;28;20418;-59
2022/01/04 07:56:28;;;;;;;2.63;1.30;;;;;;;;;;5073698;28;20479;-59
2022/01/04 07:59:00;;;;;;;2.15;1.02;;;;;;;;;;5073564;28;20028;-59
2022/01/04 08:01:25;;;;;;;2.78;1.10;;;;;;;;;;5072712;28;20496;-58
2022/01/04 08:03:50;;;;;;;3.08;1.50;;;;;;;;;;5072939;28;20037;-58
2022/01/04 08:06:15;;;;;;;4.37;1.43;;;;;;;;;;5073382;28;20496;-59
2022/01/04 08:08:41;;;;;;;4.15;1.00;;;;;;;;;;5072751;28;20513;-60
2022/01/04 08:11:08;;;;;;;1.52;0.93;;;;;;;;;;5073737;28;20126;-58
2022/01/04 08:13:33;;;;;;;3.47;1.08;;;;;;;;;;5073217;28;20062;-58
2022/01/04 08:15:58;;;;;;;3.65;0.75;;;;;;;;;;5073127;28;20032;-58
2022/01/04 08:18:23;;;;;;;1.42;0.88;;;;;;;;;;5071045;28;20048;-59
2022/01/04 08:20:53;;;;;;;3.58;1.38;;;;;;;;;;5072887;28;20048;-60
2022/01/04 08:23:19;;;;;;;2.95;1.30;;;;;;;;;;5072668;28;20040;-58
2022/01/04 08:25:44;;;;;;;2.75;1.02;;;;;;;;;;5072020;28;20028;-58
2022/01/04 08:28:09;;;;;;;6.18;3.50;;;;;;;;;;5072038;28;20505;-55
2022/01/04 08:30:34;;;;;;;8.95;4.75;;;;;;;;;;5071236;28;20031;-55
2022/01/04 08:33:00;;;;;;;8.70;5.50;;;;;;;;;;5071802;28;20101;-57
2022/01/04 08:35:25;;;;;;;10.50;5.82;;;;;;;;;;5071605;28;20021;-54
2022/01/04 08:37:50;;;;;;;10.98;6.03;;;;;;;;;;5072298;28;20441;-56
2022/01/04 08:40:15;;;;;;;9.45;5.63;;;;;;;;;;5071027;28;20054;-58
2022/01/04 08:42:41;;;;;;;8.68;4.70;;;;;;;;;;5072714;28;20090;-58
2022/01/04 08:45:07;;;;;;;7.35;4.72;;;;;;;;;;5072198;28;20471;-58
2022/01/04 08:47:32;;;;;;;8.23;3.83;;;;;;;;;;5072488;28;20040;-58
2022/01/04 08:49:57;;;;;;;6.00;3.55;;;;;;;;;;5072801;28;20024;-58
2022/01/04 08:52:25;;;;;;;6.63;3.33;;;;;;;;;;5070796;28;20115;-58
2022/01/04 08:54:50;;;;;;;6.20;3.58;;;;;;;;;;5072775;28;20425;-58
2022/01/04 08:57:15;;;;;;;4.25;3.10;;;;;;;;;;5072031;28;20021;-58
2022/01/04 08:59:41;;;;;;;7.10;2.92;;;;;;;;;;5071991;28;20081;-58
2022/01/04 09:02:06;;;;;;;4.28;2.28;;;;;;;;;;5072698;28;20021;-58
2022/01/04 09:04:31;;;;;;;6.45;2.83;;;;;;;;;;5072426;28;20036;-60
2022/01/04 09:06:57;;;;;;;6.32;2.55;;;;;;;;;;5072264;28;20396;-58
2022/01/04 09:09:22;;;;;;;7.55;2.20;;;;;;;;;;5071964;28;20025;-59
2022/01/04 09:11:47;;;;;;;7.30;3.03;;;;;;;;;;5072842;28;20028;-59
2022/01/04 09:19:42;;;;;;;4.28;1.77;;;;;;;;;;5057768;28;20047;-60
2022/01/04 09:22:08;;;;;;;8.30;2.13;;;;;;;;;;5058263;28;20123;-60
2022/01/04 09:24:33;;;;;;;6.90;2.25;;;;;;;;;;5060932;28;20400;-59
2022/01/04 09:26:59;;;;;;;4.85;2.90;;;;;;;;;;5059622;28;20451;-58
2022/01/04 09:29:24;;;;;;;4.68;2.38;;;;;;;;;;5059498;28;20120;-57
2022/01/04 09:31:50;;;;;;;6.75;2.38;;;;;;;;;;5044433;28;20488;-58
2022/01/04 09:34:16;;;;;;;6.55;2.60;;;;;;;;;;5064765;28;20039;-60
2022/01/04 09:36:42;;;;;;;4.22;2.08;;;;;;;;;;5069854;28;20465;-60
2022/01/04 09:39:09;;;;;;;8.52;2.67;;;;;;;;;;5069955;28;20042;-61
2022/01/04 09:41:34;;;;;;;4.38;1.65;;;;;;;;;;5061513;28;20072;-59
2022/01/04 09:43:59;;;;;;;7.75;1.83;;;;;;;;;;5059242;28;20745;-62
2022/01/04 09:46:26;;;;;;;7.75;1.55;;;;;;;;;;5064778;28;20039;-61
2022/01/04 09:48:52;;;;;;;4.38;1.83;;;;;;;;;;5069658;28;20113;-63
2022/01/04 09:51:17;;;;;;;2.28;1.17;;;;;;;;;;5070924;28;20146;-61
2022/01/04 09:53:42;;;;;;;3.53;1.30;;;;;;;;;;5074032;28;20086;-63
2022/01/04 09:56:08;;;;;;;7.55;1.40;;;;;;;;;;5076246;28;20029;-61
2022/01/04 09:58:33;;;;;;;4.55;1.33;;;;;;;;;;5075572;28;20098;-61
2022/01/04 10:00:58;;;;;;;9.80;1.25;;;;;;;;;;5075423;28;20101;-62
2022/01/04 10:03:28;;;;;;;1.52;1.00;;;;;;;;;;5075539;28;20029;-61
2022/01/04 10:06:03;;;;;;;6.53;1.40;;;;;;;;;;5075779;28;20033;-62
2022/01/04 10:08:29;;;;;;;2.50;0.82;;;;;;;;;;5066719;28;20370;-64
2022/01/04 10:11:06;;;;;;;29.13;2.25;;;;;;;;;;5065462;28;20016;-61
2022/01/04 10:13:31;;;;;;;5.82;1.10;;;;;;;;;;5075480;28;20036;-66
2022/01/04 10:15:56;;;;;;;5.72;1.30;;;;;;;;;;5076904;28;20480;-63
2022/01/04 10:18:24;;;;;;;2.67;0.75;;;;;;;;;;5075120;28;20059;-61
2022/01/04 10:21:09;;;;;;;5.13;0.90;;;;;;;;;;5075327;28;20107;-62
2022/01/04 10:23:43;;;;;;;4.13;1.23;;;;;;;;;;5075188;28;20040;-60
2022/01/04 10:26:08;;;;;;;5.35;1.40;;;;;;;;;;5075508;28;20032;-64
2022/01/04 10:28:39;;;;;;;6.35;1.40;;;;;;;;;;5074963;28;20063;-62
2022/01/04 10:31:05;;;;;;;4.57;1.05;;;;;;;;;;5074792;28;20115;-62
2022/01/04 10:33:32;;;;;;;5.97;0.90;;;;;;;;;;5074989;28;20036;-63
2022/01/04 10:35:57;;;;;;;2.78;0.77;;;;;;;;;;5074993;28;20056;-62
2022/01/04 10:38:26;;;;;;;6.10;1.25;;;;;;;;;;5074959;28;20063;-60
2022/01/04 10:41:11;;;;;;;4.85;1.40;;;;;;;;;;5075363;28;20029;-64
2022/01/04 10:43:41;;;;;;;3.72;1.35;;;;;;;;;;4992803;28;20041;-62
2022/01/04 10:46:06;;;;;;;3.87;1.23;;;;;;;;;;4981734;28;20058;-60
2022/01/04 10:48:42;;;;;;;3.58;1.10;;;;;;;;;;4973499;28;20073;-59
2022/01/04 10:51:11;;;;;;;6.63;2.17;;;;;;;;;;4973717;28;20049;-59
2022/01/04 10:53:42;;;;;;;2.42;1.35;;;;;;;;;;4973778;28;20054;-62
2022/01/04 10:56:09;;;;;;;3.13;1.05;;;;;;;;;;4974475;28;20026;-61
2022/01/04 10:58:39;;;;;;;5.55;1.10;;;;;;;;;;4978534;28;20113;-62
2022/01/04 11:01:17;;;;;;;5.82;1.67;;;;;;;;;;4990872;28;20089;-64
2022/01/04 11:03:44;;;;;;;4.65;1.30;;;;;;;;;;4989935;28;20035;-64
2022/01/04 11:06:13;;;;;;;4.25;1.50;;;;;;;;;;4990524;28;20225;-64
2022/01/04 11:08:39;;;;;;;2.40;0.98;;;;;;;;;;4990308;28;20104;-66
2022/01/04 11:11:04;;;;;;;2.40;0.90;;;;;;;;;;4991998;28;20494;-68
2022/01/04 11:13:30;;;;;;;3.42;1.05;;;;;;;;;;4991005;28;20026;-69
2022/01/04 11:15:56;;;;;;;4.95;1.00;;;;;;;;;;4990950;28;20030;-65
2022/01/04 11:18:21;;;;;;;2.67;0.85;;;;;;;;;;4991224;28;20066;-64
2022/01/04 11:20:47;;;;;;;3.88;0.90;;;;;;;;;;5033977;28;20463;-64
2022/01/04 11:23:13;;;;;;;4.28;0.75;;;;;;;;;;5070110;28;20024;-66
2022/01/04 11:25:39;;;;;;;3.50;1.42;;;;;;;;;;5072106;28;20047;-65
2022/01/04 11:28:07;;;;;;;5.70;1.33;;;;;;;;;;5071763;28;20036;-67
2022/01/04 11:30:41;;;;;;;1.55;0.75;;;;;;;;;;5071412;27;20068;-63
2022/01/04 11:33:15;;;;;;;5.32;0.77;;;;;;;;;;5070653;28;20047;-65
2022/01/04 11:35:40;;;;;;;4.00;0.73;;;;;;;;;;5065902;28;20032;-67
2022/01/04 11:38:05;;;;;;;3.70;1.33;;;;;;;;;;5072748;28;20461;-66
2022/01/04 11:40:34;;;;;;;4.50;0.93;;;;;;;;;;5071870;28;20036;-67
2022/01/04 11:43:00;;;;;;;3.85;0.88;;;;;;;;;;5070024;28;20020;-64
2022/01/04 11:45:37;;;;;;;4.75;1.20;;;;;;;;;;5071419;28;20039;-63
2022/01/04 11:48:03;;;;;;;7.68;1.67;;;;;;;;;;5072142;28;20381;-66
2022/01/04 11:50:34;;;;;;;4.03;1.35;;;;;;;;;;5072352;28;20020;-68
2022/01/04 11:53:05;;;;;;;5.80;0.90;;;;;;;;;;5072564;28;20100;-68
2022/01/04 11:55:31;;;;;;;4.75;0.85;;;;;;;;;;5071379;28;20028;-65
2022/01/04 11:58:14;;;;;;;4.80;1.00;;;;;;;;;;5070062;28;20460;-67
2022/01/04 12:00:40;;;;;;;3.95;0.80;;;;;;;;;;5071312;28;20024;-68
2022/01/04 12:03:16;;;;;;;4.63;1.15;;;;;;;;;;5071858;28;20028;-70
2022/01/04 12:05:56;;;;;;;4.05;0.88;;;;;;;;;;5070947;28;20029;-70
2022/01/04 12:08:21;;;;;;;;;;;;;;;;;;5072908;28;20013;-69
2022/01/04 12:10:48;;;;;;;2.38;0.52;;;;;;;;;;5071190;28;19999;-67
2022/01/04 12:13:16;;;;;;;1.92;0.80;;;;;;;;;;5070776;28;20406;-70
2022/01/04 12:15:44;;;;;;;3.13;1.00;;;;;;;;;;5072200;28;20025;-69
2022/01/04 12:18:29;;;;;;;6.22;1.55;;;;;;;;;;5072503;28;20055;-69
2022/01/04 12:20:56;;;;;;;1.85;0.73;;;;;;;;;;5071045;28;20036;-70
2022/01/04 12:23:29;;;;;;;2.60;1.08;;;;;;;;;;5071818;28;20059;-68
2022/01/04 12:26:08;;;;;;;2.42;1.02;;;;;;;;;;5070359;28;20042;-69
2022/01/04 12:28:35;;;;;;;1.05;0.40;;;;;;;;;;5071304;28;20040;-68
2022/01/04 12:31:19;;;;;;;1.48;0.63;;;;;;;;;;5071898;28;20657;-67
2022/01/04 12:33:44;;;;;;;3.25;0.95;;;;;;;;;;5072190;28;20396;-71
2022/01/04 12:36:11;;;;;;;5.32;1.00;;;;;;;;;;5070869;28;20044;-68
2022/01/04 12:38:36;;;;;;;2.88;0.60;;;;;;;;;;5069457;28;20041;-63
2022/01/04 12:41:03;;;;;;;4.45;1.00;;;;;;;;;;5067339;28;20090;-63
2022/01/04 12:43:29;;;;;;;6.00;0.55;;;;;;;;;;5069852;28;20087;-66
2022/01/04 12:45:58;;;;;;;6.53;1.33;;;;;;;;;;5071650;28;20127;-67
2022/01/04 12:48:41;;;;;;;2.97;1.10;;;;;;;;;;5073292;28;20031;-66
2022/01/04 12:51:25;;;;;;;1.17;0.52;;;;;;;;;;5071253;28;20111;-66
2022/01/04 12:53:54;;;;;;;3.25;0.77;;;;;;;;;;5071441;28;20146;-67
2022/01/04 12:56:20;;;;;;;4.38;0.90;;;;;;;;;;5072055;28;20037;-66
2022/01/04 12:58:45;;;;;;;4.00;0.75;;;;;;;;;;5070951;28;20370;-68
2022/01/04 13:01:11;;;;;;;1.42;0.57;;;;;;;;;;5072032;28;20445;-68
2022/01/04 13:03:36;;;;;;;3.42;0.43;;;;;;;;;;5071448;28;20071;-68
2022/01/04 13:06:04;;;;;;;6.47;0.85;;;;;;;;;;5072845;28;20558;-67
2022/01/04 13:08:29;;;;;;;3.92;0.70;;;;;;;;;;5071807;28;20020;-68
2022/01/04 13:11:08;;;;;;;1.33;0.82;;;;;;;;;;5072227;28;20452;-64
2022/01/04 13:13:33;;;;;;;3.03;0.77;;;;;;;;;;5071779;28;20024;-65
2022/01/04 13:16:17;;;;;;;4.55;1.00;;;;;;;;;;5071428;28;20039;-65
2022/01/04 13:18:43;;;;;;;6.82;0.70;;;;;;;;;;5070314;28;20040;-67
2022/01/04 13:21:08;;;;;;;5.25;0.90;;;;;;;;;;5071380;28;20408;-62
2022/01/04 13:23:39;;;;;;;5.88;0.77;;;;;;;;;;5070759;28;20085;-70
2022/01/04 13:26:04;;;;;;;3.67;1.25;;;;;;;;;;5071502;28;20052;-68
2022/01/04 13:28:30;;;;;;;5.35;0.95;;;;;;;;;;5074765;28;20065;-68
2022/01/04 13:30:55;;;;;;;1.20;0.60;;;;;;;;;;5075774;28;20051;-70
2022/01/04 13:33:24;;;;;;;3.38;0.50;;;;;;;;;;5074588;28;20017;-69
2022/01/04 13:35:49;;;;;;;4.00;0.73;;;;;;;;;;5073979;28;20039;-69
2022/01/04 13:38:20;;;;;;;3.47;1.50;;;;;;;;;;5075437;28;20088;-68
2022/01/04 13:40:46;;;;;;;6.05;0.60;;;;;;;;;;5073820;28;20115;-69
2022/01/04 13:43:15;;;;;;;2.35;0.70;;;;;;;;;;5073396;28;20627;-72
2022/01/04 13:45:45;;;;;;;6.00;0.65;;;;;;;;;;5073654;28;20063;-71
2022/01/04 13:48:10;;;;;;;4.80;0.63;;;;;;;;;;5074097;28;20039;-73
2022/01/04 13:50:43;;;;;;;2.83;1.20;;;;;;;;;;5074221;28;20472;-71
2022/01/04 13:53:13;;;;;;;2.50;0.60;;;;;;;;;;5075007;28;20023;-71
2022/01/04 13:55:49;;;;;;;4.80;1.00;;;;;;;;;;5075026;28;20028;-68
2022/01/04 13:58:38;;;;;;;2.97;0.80;;;;;;;;;;5071455;28;20029;-66
2022/01/04 14:01:13;;;;;;;2.10;1.17;;;;;;;;;;5032057;28;20180;-68
2022/01/04 14:03:38;;;;;;;4.07;0.60;;;;;;;;;;5031714;28;20130;-68
2022/01/04 14:06:04;;;;;;;3.05;0.50;;;;;;;;;;5030726;28;20124;-67
2022/01/04 14:08:48;;;;;;;4.40;1.13;;;;;;;;;;5031817;28;20029;-68
2022/01/04 14:11:20;;;;;;;6.70;0.90;;;;;;;;;;5033183;28;20102;-65
2022/01/04 14:13:48;;;;;;;7.13;0.90;;;;;;;;;;5031592;28;20041;-64
2022/01/04 14:16:13;;;;;;;4.38;0.98;;;;;;;;;;5030478;28;20044;-63
2022/01/04 14:18:58;;;;;;;4.80;0.75;;;;;;;;;;5031012;28;20478;-62
2022/01/04 14:21:36;;;;;;;10.48;1.33;;;;;;;;;;5030377;28;20049;-62
2022/01/04 14:24:02;;;;;;;2.88;0.75;;;;;;;;;;5030033;28;20038;-62
2022/01/04 14:26:27;;;;;;;3.58;1.83;;;;;;;;;;5029371;28;20115;-62
2022/01/04 14:28:53;;;;;;;4.70;1.02;;;;;;;;;;5030205;28;20084;-62
2022/01/04 14:31:19;;;;;;;1.75;0.65;;;;;;;;;;5029438;28;20399;-66
2022/01/04 14:33:44;;;;;;;5.25;1.00;;;;;;;;;;5029199;28;20033;-62
2022/01/04 14:36:09;;;;;;;3.40;0.82;;;;;;;;;;5030663;28;20576;-61
2022/01/04 14:38:34;;;;;;;3.88;0.80;;;;;;;;;;5059085;28;20098;-63
2022/01/04 14:41:00;;;;;;;6.60;0.77;;;;;;;;;;5069330;28;20055;-65
2022/01/04 14:43:26;;;;;;;1.88;0.93;;;;;;;;;;5070117;28;20041;-66
2022/01/04 14:45:51;;;;;;;4.32;1.52;;;;;;;;;;5070534;28;20079;-66
2022/01/04 14:48:18;;;;;;;1.60;0.68;;;;;;;;;;5071536;28;20044;-64
2022/01/04 14:50:43;;;;;;;1.40;0.70;;;;;;;;;;5069343;28;20032;-64
2022/01/04 14:53:08;;;;;;;5.70;0.63;;;;;;;;;;5070430;28;20020;-65
2022/01/04 14:55:33;;;;;;;2.50;0.55;;;;;;;;;;5071609;28;20033;-66
2022/01/04 14:57:59;;;;;;;5.35;1.10;;;;;;;;;;5070641;28;20047;-65